sensor_id;sensor_type;location;lat;lon;timestamp;P1;durP1;ratioP1;P2;durP2;ratioP2
36449;SDS011;22475;51.390;7.180;2022-07-29T00:01:37;3.05;;;1.25;;
36449;SDS011;22475;51.390;7.180;2022-07-29T00:04:04;0.98;;;0.65;;
36449;SDS011;22475;51.390;7.180;2022-07-29T00:06:30;2.60;;;0.80;;
36449;SDS011;22475;51.390;7.180;2022-07-29T00:08:57;2.15;;;1.08;;
36449;SDS011;22475;51.390;7.180;2022-07-29T00:11:26;2.38;;;0.90;;
36449;SDS011;22475;51.390;7.180;2022-07-29T00:13:52;3.13;;;0.93;;
36449;SDS011;22475;51.390;7.180;2022-07-29T00:16:19;2.08;;;1.10;;
36449;SDS011;22475;51.390;7.180;2022-07-29T00:18:46;1.25;;;0.98;;
36449;SDS011;22475;51.390;7.180;2022-07-29T00:21:13;0.85;;;0.73;;
36449;SDS011;22475;51.390;7.180;2022-07-29T00:23:40;1.70;;;0.90;;
36449;SDS011;22475;51.390;7.180;2022-07-29T00:26:07;1.95;;;0.90;;
36449;SDS011;22475;51.390;7.180;2022-07-29T00:28:35;1.00;;;0.90;;
36449;SDS011;22475;51.390;7.180;2022-07-29T00:31:02;1.65;;;0.80;;
36449;SDS011;22475;51.390;7.180;2022-07-29T00:33:29;5.22;;;1.40;;
36449;SDS011;22475;51.390;7.180;2022-07-29T00:35:56;1.50;;;0.80;;
36449;SDS011;22475;51.390;7.180;2022-07-29T00:38:22;0.30;;;0.30;;
36449;SDS011;22475;51.390;7.180;2022-07-29T00:40:49;1.00;;;0.70;;
36449;SDS011;22475;51.390;7.180;2022-07-29T00:43:16;1.65;;;0.88;;
36449;SDS011;22475;51.390;7.180;2022-07-29T00:45:45;0.90;;;0.90;;
36449;SDS011;22475;51.390;7.180;2022-07-29T00:48:12;1.42;;;0.95;;
36449;SDS011;22475;51.390;7.180;2022-07-29T00:50:39;2.17;;;0.85;;
36449;SDS011;22475;51.390;7.180;2022-07-29T00:53:06;3.67;;;0.52;;
36449;SDS011;22475;51.390;7.180;2022-07-29T00:55:34;5.57;;;1.17;;
36449;SDS011;22475;51.390;7.180;2022-07-29T00:58:01;6.30;;;0.88;;
36449;SDS011;22475;51.390;7.180;2022-07-29T01:00:28;1.83;;;0.90;;
36449;SDS011;22475;51.390;7.180;2022-07-29T01:02:57;0.90;;;0.68;;
36449;SDS011;22475;51.390;7.180;2022-07-29T01:05:25;1.30;;;0.77;;
36449;SDS011;22475;51.390;7.180;2022-07-29T01:07:55;2.03;;;1.10;;
36449;SDS011;22475;51.390;7.180;2022-07-29T01:12:51;2.63;;;0.80;;
36449;SDS011;22475;51.390;7.180;2022-07-29T01:15:20;4.70;;;0.90;;
36449;SDS011;22475;51.390;7.180;2022-07-29T01:17:50;0.95;;;0.60;;
36449;SDS011;22475;51.390;7.180;2022-07-29T01:20:31;2.42;;;1.10;;
36449;SDS011;22475;51.390;7.180;2022-07-29T01:23:18;2.55;;;1.02;;
36449;SDS011;22475;51.390;7.180;2022-07-29T01:26:09;1.15;;;1.05;;
36449;SDS011;22475;51.390;7.180;2022-07-29T01:28:54;2.42;;;0.65;;
36449;SDS011;22475;51.390;7.180;2022-07-29T01:31:31;4.05;;;1.02;;
36449;SDS011;22475;51.390;7.180;2022-07-29T01:34:05;3.00;;;1.05;;
36449;SDS011;22475;51.390;7.180;2022-07-29T01:36:35;2.40;;;0.75;;
36449;SDS011;22475;51.390;7.180;2022-07-29T01:41:35;5.20;;;0.90;;
36449;SDS011;22475;51.390;7.180;2022-07-29T01:44:10;1.40;;;1.00;;
36449;SDS011;22475;51.390;7.180;2022-07-29T01:46:41;2.30;;;0.73;;
36449;SDS011;22475;51.390;7.180;2022-07-29T01:49:13;3.67;;;1.25;;
36449;SDS011;22475;51.390;7.180;2022-07-29T01:51:44;2.30;;;0.80;;
36449;SDS011;22475;51.390;7.180;2022-07-29T01:54:14;2.00;;;1.23;;
36449;SDS011;22475;51.390;7.180;2022-07-29T01:56:47;1.30;;;1.20;;
36449;SDS011;22475;51.390;7.180;2022-07-29T01:59:17;2.25;;;1.00;;
36449;SDS011;22475;51.390;7.180;2022-07-29T02:01:45;1.00;;;0.90;;
36449;SDS011;22475;51.390;7.180;2022-07-29T02:04:14;3.45;;;1.50;;
36449;SDS011;22475;51.390;7.180;2022-07-29T02:06:42;3.75;;;1.48;;
36449;SDS011;22475;51.390;7.180;2022-07-29T02:09:12;1.98;;;0.90;;
36449;SDS011;22475;51.390;7.180;2022-07-29T02:11:41;0.80;;;0.80;;
36449;SDS011;22475;51.390;7.180;2022-07-29T02:14:17;2.17;;;1.30;;
36449;SDS011;22475;51.390;7.180;2022-07-29T02:16:44;2.15;;;1.10;;
36449;SDS011;22475;51.390;7.180;2022-07-29T02:19:13;2.00;;;1.10;;
36449;SDS011;22475;51.390;7.180;2022-07-29T02:21:43;2.42;;;1.60;;
36449;SDS011;22475;51.390;7.180;2022-07-29T02:24:12;3.30;;;1.63;;
36449;SDS011;22475;51.390;7.180;2022-07-29T02:26:40;2.03;;;1.10;;
36449;SDS011;22475;51.390;7.180;2022-07-29T02:29:09;3.47;;;0.93;;
36449;SDS011;22475;51.390;7.180;2022-07-29T02:31:39;0.90;;;0.85;;
36449;SDS011;22475;51.390;7.180;2022-07-29T02:34:12;2.35;;;1.42;;
36449;SDS011;22475;51.390;7.180;2022-07-29T02:36:39;2.53;;;1.17;;
36449;SDS011;22475;51.390;7.180;2022-07-29T02:39:09;0.73;;;0.65;;
36449;SDS011;22475;51.390;7.180;2022-07-29T02:41:40;1.13;;;1.02;;
36449;SDS011;22475;51.390;7.180;2022-07-29T02:44:11;5.70;;;1.17;;
36449;SDS011;22475;51.390;7.180;2022-07-29T02:46:43;1.90;;;1.13;;
36449;SDS011;22475;51.390;7.180;2022-07-29T02:49:16;2.40;;;0.98;;
36449;SDS011;22475;51.390;7.180;2022-07-29T02:52:04;3.28;;;0.93;;
36449;SDS011;22475;51.390;7.180;2022-07-29T02:54:37;1.35;;;0.80;;
36449;SDS011;22475;51.390;7.180;2022-07-29T02:57:09;4.20;;;1.17;;
36449;SDS011;22475;51.390;7.180;2022-07-29T02:59:41;1.10;;;1.05;;
36449;SDS011;22475;51.390;7.180;2022-07-29T03:02:12;2.08;;;1.00;;
36449;SDS011;22475;51.390;7.180;2022-07-29T03:04:41;2.08;;;0.93;;
36449;SDS011;22475;51.390;7.180;2022-07-29T03:07:09;1.13;;;0.90;;
36449;SDS011;22475;51.390;7.180;2022-07-29T03:09:38;1.20;;;1.10;;
36449;SDS011;22475;51.390;7.180;2022-07-29T03:12:06;2.05;;;0.82;;
36449;SDS011;22475;51.390;7.180;2022-07-29T03:14:34;3.13;;;1.40;;
36449;SDS011;22475;51.390;7.180;2022-07-29T03:17:03;1.35;;;0.82;;
36449;SDS011;22475;51.390;7.180;2022-07-29T03:19:31;1.45;;;0.73;;
36449;SDS011;22475;51.390;7.180;2022-07-29T03:21:59;2.22;;;0.80;;
36449;SDS011;22475;51.390;7.180;2022-07-29T03:24:27;1.92;;;0.98;;
36449;SDS011;22475;51.390;7.180;2022-07-29T03:26:56;4.45;;;1.20;;
36449;SDS011;22475;51.390;7.180;2022-07-29T03:29:23;1.27;;;1.17;;
36449;SDS011;22475;51.390;7.180;2022-07-29T03:31:51;0.75;;;0.73;;
36449;SDS011;22475;51.390;7.180;2022-07-29T03:34:18;1.55;;;0.98;;
36449;SDS011;22475;51.390;7.180;2022-07-29T03:36:47;3.15;;;1.02;;
36449;SDS011;22475;51.390;7.180;2022-07-29T03:39:17;1.17;;;1.00;;
36449;SDS011;22475;51.390;7.180;2022-07-29T03:41:47;1.83;;;1.15;;
36449;SDS011;22475;51.390;7.180;2022-07-29T03:44:16;5.25;;;0.80;;
36449;SDS011;22475;51.390;7.180;2022-07-29T03:46:45;5.13;;;1.25;;
36449;SDS011;22475;51.390;7.180;2022-07-29T03:49:14;3.13;;;0.85;;
36449;SDS011;22475;51.390;7.180;2022-07-29T03:51:42;1.33;;;1.23;;
36449;SDS011;22475;51.390;7.180;2022-07-29T03:54:11;3.28;;;0.82;;
36449;SDS011;22475;51.390;7.180;2022-07-29T03:56:39;1.80;;;0.98;;
36449;SDS011;22475;51.390;7.180;2022-07-29T03:59:11;0.93;;;0.85;;
36449;SDS011;22475;51.390;7.180;2022-07-29T04:01:41;1.15;;;1.13;;
36449;SDS011;22475;51.390;7.180;2022-07-29T04:04:09;2.55;;;0.98;;
36449;SDS011;22475;51.390;7.180;2022-07-29T04:06:39;2.15;;;1.00;;
36449;SDS011;22475;51.390;7.180;2022-07-29T04:09:07;2.22;;;0.90;;
36449;SDS011;22475;51.390;7.180;2022-07-29T04:11:36;3.13;;;0.98;;
36449;SDS011;22475;51.390;7.180;2022-07-29T04:14:05;3.08;;;1.00;;
36449;SDS011;22475;51.390;7.180;2022-07-29T04:16:32;4.80;;;0.90;;
36449;SDS011;22475;51.390;7.180;2022-07-29T04:18:59;1.10;;;1.08;;
36449;SDS011;22475;51.390;7.180;2022-07-29T04:21:27;1.77;;;1.08;;
36449;SDS011;22475;51.390;7.180;2022-07-29T04:23:54;4.72;;;0.70;;
36449;SDS011;22475;51.390;7.180;2022-07-29T04:26:21;4.10;;;1.10;;
36449;SDS011;22475;51.390;7.180;2022-07-29T04:28:50;1.55;;;0.90;;
36449;SDS011;22475;51.390;7.180;2022-07-29T04:31:20;1.73;;;0.63;;
36449;SDS011;22475;51.390;7.180;2022-07-29T04:33:47;3.30;;;0.98;;
36449;SDS011;22475;51.390;7.180;2022-07-29T04:36:14;2.15;;;0.95;;
36449;SDS011;22475;51.390;7.180;2022-07-29T04:38:41;5.47;;;1.33;;
36449;SDS011;22475;51.390;7.180;2022-07-29T04:41:08;6.05;;;1.15;;
36449;SDS011;22475;51.390;7.180;2022-07-29T04:43:35;10.10;;;1.25;;
36449;SDS011;22475;51.390;7.180;2022-07-29T04:46:05;2.03;;;0.90;;
36449;SDS011;22475;51.390;7.180;2022-07-29T04:50:59;1.27;;;0.90;;
36449;SDS011;22475;51.390;7.180;2022-07-29T04:53:26;4.38;;;1.10;;
36449;SDS011;22475;51.390;7.180;2022-07-29T04:55:53;1.80;;;1.20;;
36449;SDS011;22475;51.390;7.180;2022-07-29T04:58:20;5.63;;;0.70;;
36449;SDS011;22475;51.390;7.180;2022-07-29T05:00:48;4.20;;;0.80;;
36449;SDS011;22475;51.390;7.180;2022-07-29T05:03:16;1.10;;;1.08;;
36449;SDS011;22475;51.390;7.180;2022-07-29T05:05:44;3.55;;;1.08;;
36449;SDS011;22475;51.390;7.180;2022-07-29T05:08:11;1.63;;;0.75;;
36449;SDS011;22475;51.390;7.180;2022-07-29T05:10:38;2.35;;;1.00;;
36449;SDS011;22475;51.390;7.180;2022-07-29T05:13:05;2.65;;;1.30;;
36449;SDS011;22475;51.390;7.180;2022-07-29T05:15:32;5.13;;;1.10;;
36449;SDS011;22475;51.390;7.180;2022-07-29T05:18:00;0.60;;;0.50;;
36449;SDS011;22475;51.390;7.180;2022-07-29T05:20:28;2.05;;;1.10;;
36449;SDS011;22475;51.390;7.180;2022-07-29T05:22:56;4.13;;;1.13;;
36449;SDS011;22475;51.390;7.180;2022-07-29T05:25:23;2.28;;;0.90;;
36449;SDS011;22475;51.390;7.180;2022-07-29T05:27:51;1.98;;;1.10;;
36449;SDS011;22475;51.390;7.180;2022-07-29T05:30:18;1.23;;;1.10;;
36449;SDS011;22475;51.390;7.180;2022-07-29T05:32:45;5.63;;;1.05;;
36449;SDS011;22475;51.390;7.180;2022-07-29T05:35:12;4.55;;;1.10;;
36449;SDS011;22475;51.390;7.180;2022-07-29T05:37:40;0.65;;;0.65;;
36449;SDS011;22475;51.390;7.180;2022-07-29T05:40:08;2.85;;;0.90;;
36449;SDS011;22475;51.390;7.180;2022-07-29T05:42:35;1.75;;;0.88;;
36449;SDS011;22475;51.390;7.180;2022-07-29T05:45:02;1.13;;;0.68;;
36449;SDS011;22475;51.390;7.180;2022-07-29T05:47:30;1.15;;;0.80;;
36449;SDS011;22475;51.390;7.180;2022-07-29T05:49:57;5.40;;;1.15;;
36449;SDS011;22475;51.390;7.180;2022-07-29T05:52:24;2.08;;;1.00;;
36449;SDS011;22475;51.390;7.180;2022-07-29T05:54:52;2.95;;;0.88;;
36449;SDS011;22475;51.390;7.180;2022-07-29T05:57:19;4.28;;;1.85;;
36449;SDS011;22475;51.390;7.180;2022-07-29T05:59:49;1.67;;;0.90;;
36449;SDS011;22475;51.390;7.180;2022-07-29T06:02:16;5.18;;;2.05;;
36449;SDS011;22475;51.390;7.180;2022-07-29T06:04:44;4.95;;;1.00;;
36449;SDS011;22475;51.390;7.180;2022-07-29T06:07:10;8.63;;;1.83;;
36449;SDS011;22475;51.390;7.180;2022-07-29T06:09:37;3.45;;;1.20;;
36449;SDS011;22475;51.390;7.180;2022-07-29T06:12:06;1.02;;;0.75;;
36449;SDS011;22475;51.390;7.180;2022-07-29T06:14:33;10.32;;;1.35;;
36449;SDS011;22475;51.390;7.180;2022-07-29T06:17:00;2.58;;;0.75;;
36449;SDS011;22475;51.390;7.180;2022-07-29T06:19:27;9.45;;;1.35;;
36449;SDS011;22475;51.390;7.180;2022-07-29T06:21:54;4.78;;;1.90;;
36449;SDS011;22475;51.390;7.180;2022-07-29T06:24:21;1.23;;;0.80;;
36449;SDS011;22475;51.390;7.180;2022-07-29T06:26:48;2.67;;;0.80;;
36449;SDS011;22475;51.390;7.180;2022-07-29T06:29:16;2.00;;;0.50;;
36449;SDS011;22475;51.390;7.180;2022-07-29T06:31:43;2.38;;;1.13;;
36449;SDS011;22475;51.390;7.180;2022-07-29T06:34:10;5.97;;;1.02;;
36449;SDS011;22475;51.390;7.180;2022-07-29T06:36:37;2.88;;;1.20;;
36449;SDS011;22475;51.390;7.180;2022-07-29T06:39:07;3.85;;;1.27;;
36449;SDS011;22475;51.390;7.180;2022-07-29T06:41:34;3.60;;;1.45;;
36449;SDS011;22475;51.390;7.180;2022-07-29T06:44:01;1.67;;;0.88;;
36449;SDS011;22475;51.390;7.180;2022-07-29T06:46:31;3.95;;;1.40;;
36449;SDS011;22475;51.390;7.180;2022-07-29T06:48:58;1.65;;;0.80;;
36449;SDS011;22475;51.390;7.180;2022-07-29T06:51:26;2.35;;;1.25;;
36449;SDS011;22475;51.390;7.180;2022-07-29T06:53:53;2.53;;;0.85;;
36449;SDS011;22475;51.390;7.180;2022-07-29T06:56:20;2.25;;;0.68;;
36449;SDS011;22475;51.390;7.180;2022-07-29T06:58:47;2.20;;;1.00;;
36449;SDS011;22475;51.390;7.180;2022-07-29T07:01:14;4.85;;;1.27;;
36449;SDS011;22475;51.390;7.180;2022-07-29T07:03:42;2.67;;;0.95;;
36449;SDS011;22475;51.390;7.180;2022-07-29T07:06:09;2.28;;;1.00;;
36449;SDS011;22475;51.390;7.180;2022-07-29T07:08:36;1.52;;;0.98;;
36449;SDS011;22475;51.390;7.180;2022-07-29T07:11:03;2.40;;;1.20;;
36449;SDS011;22475;51.390;7.180;2022-07-29T07:13:31;1.38;;;0.98;;
36449;SDS011;22475;51.390;7.180;2022-07-29T07:15:59;9.38;;;1.50;;
36449;SDS011;22475;51.390;7.180;2022-07-29T07:18:26;4.10;;;0.95;;
36449;SDS011;22475;51.390;7.180;2022-07-29T07:20:55;3.03;;;0.75;;
36449;SDS011;22475;51.390;7.180;2022-07-29T07:23:23;1.42;;;1.23;;
36449;SDS011;22475;51.390;7.180;2022-07-29T07:25:50;3.55;;;0.95;;
36449;SDS011;22475;51.390;7.180;2022-07-29T07:28:17;2.05;;;0.95;;
36449;SDS011;22475;51.390;7.180;2022-07-29T07:30:44;4.45;;;1.33;;
36449;SDS011;22475;51.390;7.180;2022-07-29T07:33:11;1.90;;;1.10;;
36449;SDS011;22475;51.390;7.180;2022-07-29T07:35:38;1.65;;;0.60;;
36449;SDS011;22475;51.390;7.180;2022-07-29T07:38:06;1.98;;;0.98;;
36449;SDS011;22475;51.390;7.180;2022-07-29T07:40:33;1.52;;;0.77;;
36449;SDS011;22475;51.390;7.180;2022-07-29T07:43:01;5.78;;;1.00;;
36449;SDS011;22475;51.390;7.180;2022-07-29T07:45:28;1.88;;;1.10;;
36449;SDS011;22475;51.390;7.180;2022-07-29T07:47:55;2.70;;;1.38;;
36449;SDS011;22475;51.390;7.180;2022-07-29T07:50:22;4.22;;;1.20;;
36449;SDS011;22475;51.390;7.180;2022-07-29T07:52:49;1.75;;;1.13;;
36449;SDS011;22475;51.390;7.180;2022-07-29T07:55:19;5.10;;;0.95;;
36449;SDS011;22475;51.390;7.180;2022-07-29T07:57:46;1.48;;;1.20;;
36449;SDS011;22475;51.390;7.180;2022-07-29T08:00:13;2.35;;;1.20;;
36449;SDS011;22475;51.390;7.180;2022-07-29T08:02:41;4.00;;;0.85;;
36449;SDS011;22475;51.390;7.180;2022-07-29T08:05:10;2.13;;;1.33;;
36449;SDS011;22475;51.390;7.180;2022-07-29T08:07:40;1.15;;;0.73;;
36449;SDS011;22475;51.390;7.180;2022-07-29T08:10:07;2.25;;;1.10;;
36449;SDS011;22475;51.390;7.180;2022-07-29T08:12:36;4.22;;;1.55;;
36449;SDS011;22475;51.390;7.180;2022-07-29T08:15:03;1.63;;;1.08;;
36449;SDS011;22475;51.390;7.180;2022-07-29T08:17:32;2.60;;;1.13;;
36449;SDS011;22475;51.390;7.180;2022-07-29T08:19:59;1.30;;;1.20;;
36449;SDS011;22475;51.390;7.180;2022-07-29T08:22:26;2.55;;;1.30;;
36449;SDS011;22475;51.390;7.180;2022-07-29T08:24:53;0.73;;;0.73;;
36449;SDS011;22475;51.390;7.180;2022-07-29T08:27:21;1.13;;;1.02;;
36449;SDS011;22475;51.390;7.180;2022-07-29T08:29:49;4.13;;;1.00;;
36449;SDS011;22475;51.390;7.180;2022-07-29T08:32:16;1.35;;;1.25;;
36449;SDS011;22475;51.390;7.180;2022-07-29T08:34:43;2.90;;;1.02;;
36449;SDS011;22475;51.390;7.180;2022-07-29T08:37:11;9.18;;;1.30;;
36449;SDS011;22475;51.390;7.180;2022-07-29T08:39:38;2.47;;;1.42;;
36449;SDS011;22475;51.390;7.180;2022-07-29T08:42:06;2.63;;;0.98;;
36449;SDS011;22475;51.390;7.180;2022-07-29T08:44:34;3.72;;;1.17;;
36449;SDS011;22475;51.390;7.180;2022-07-29T08:47:03;1.98;;;1.20;;
36449;SDS011;22475;51.390;7.180;2022-07-29T08:49:32;6.47;;;1.05;;
36449;SDS011;22475;51.390;7.180;2022-07-29T08:52:00;5.25;;;0.93;;
36449;SDS011;22475;51.390;7.180;2022-07-29T08:54:27;2.90;;;1.23;;
36449;SDS011;22475;51.390;7.180;2022-07-29T08:56:55;0.82;;;0.60;;
36449;SDS011;22475;51.390;7.180;2022-07-29T08:59:22;5.85;;;1.23;;
36449;SDS011;22475;51.390;7.180;2022-07-29T09:01:53;2.05;;;1.08;;
36449;SDS011;22475;51.390;7.180;2022-07-29T09:04:25;2.55;;;1.15;;
36449;SDS011;22475;51.390;7.180;2022-07-29T09:06:57;1.88;;;0.63;;
36449;SDS011;22475;51.390;7.180;2022-07-29T09:09:30;1.90;;;1.00;;
36449;SDS011;22475;51.390;7.180;2022-07-29T09:11:59;0.82;;;0.70;;
36449;SDS011;22475;51.390;7.180;2022-07-29T09:14:26;2.03;;;0.80;;
36449;SDS011;22475;51.390;7.180;2022-07-29T09:16:53;0.90;;;0.90;;
36449;SDS011;22475;51.390;7.180;2022-07-29T09:19:22;4.65;;;1.92;;
36449;SDS011;22475;51.390;7.180;2022-07-29T09:21:53;1.97;;;1.13;;
36449;SDS011;22475;51.390;7.180;2022-07-29T09:24:25;4.35;;;1.23;;
36449;SDS011;22475;51.390;7.180;2022-07-29T09:27:01;13.95;;;1.85;;
36449;SDS011;22475;51.390;7.180;2022-07-29T09:29:28;4.40;;;1.40;;
36449;SDS011;22475;51.390;7.180;2022-07-29T09:31:56;1.80;;;1.30;;
36449;SDS011;22475;51.390;7.180;2022-07-29T09:34:23;3.30;;;2.20;;
36449;SDS011;22475;51.390;7.180;2022-07-29T09:36:53;2.25;;;1.45;;
36449;SDS011;22475;51.390;7.180;2022-07-29T09:39:27;2.83;;;1.77;;
36449;SDS011;22475;51.390;7.180;2022-07-29T09:41:55;3.10;;;1.77;;
36449;SDS011;22475;51.390;7.180;2022-07-29T09:44:24;3.58;;;1.52;;
36449;SDS011;22475;51.390;7.180;2022-07-29T09:46:53;1.73;;;1.52;;
36449;SDS011;22475;51.390;7.180;2022-07-29T09:49:27;8.18;;;2.88;;
36449;SDS011;22475;51.390;7.180;2022-07-29T09:52:05;1.45;;;1.00;;
36449;SDS011;22475;51.390;7.180;2022-07-29T09:54:33;3.92;;;2.03;;
36449;SDS011;22475;51.390;7.180;2022-07-29T09:57:03;8.45;;;2.10;;
36449;SDS011;22475;51.390;7.180;2022-07-29T09:59:31;4.30;;;2.00;;
36449;SDS011;22475;51.390;7.180;2022-07-29T10:01:58;6.38;;;1.63;;
36449;SDS011;22475;51.390;7.180;2022-07-29T10:04:36;5.30;;;1.80;;
36449;SDS011;22475;51.390;7.180;2022-07-29T10:07:06;2.33;;;1.42;;
36449;SDS011;22475;51.390;7.180;2022-07-29T10:09:33;11.40;;;2.30;;
36449;SDS011;22475;51.390;7.180;2022-07-29T10:12:07;9.25;;;2.92;;
36449;SDS011;22475;51.390;7.180;2022-07-29T10:14:37;5.90;;;2.70;;
36449;SDS011;22475;51.390;7.180;2022-07-29T10:17:05;4.68;;;2.80;;
36449;SDS011;22475;51.390;7.180;2022-07-29T10:19:33;4.15;;;1.58;;
36449;SDS011;22475;51.390;7.180;2022-07-29T10:22:02;6.25;;;1.05;;
36449;SDS011;22475;51.390;7.180;2022-07-29T10:24:33;6.38;;;1.90;;
36449;SDS011;22475;51.390;7.180;2022-07-29T10:27:01;6.25;;;1.85;;
36449;SDS011;22475;51.390;7.180;2022-07-29T10:29:29;0.85;;;0.73;;
36449;SDS011;22475;51.390;7.180;2022-07-29T10:32:11;3.58;;;1.10;;
36449;SDS011;22475;51.390;7.180;2022-07-29T10:34:57;5.35;;;1.40;;
36449;SDS011;22475;51.390;7.180;2022-07-29T10:37:37;3.22;;;1.02;;
36449;SDS011;22475;51.390;7.180;2022-07-29T10:40:26;5.78;;;1.52;;
36449;SDS011;22475;51.390;7.180;2022-07-29T10:43:18;5.47;;;1.95;;
36449;SDS011;22475;51.390;7.180;2022-07-29T10:45:48;2.03;;;1.30;;
36449;SDS011;22475;51.390;7.180;2022-07-29T10:48:20;10.93;;;1.95;;
36449;SDS011;22475;51.390;7.180;2022-07-29T10:50:52;2.22;;;1.90;;
36449;SDS011;22475;51.390;7.180;2022-07-29T10:53:21;3.90;;;1.67;;
36449;SDS011;22475;51.390;7.180;2022-07-29T10:55:49;5.18;;;1.38;;
36449;SDS011;22475;51.390;7.180;2022-07-29T10:58:18;1.15;;;1.05;;
36449;SDS011;22475;51.390;7.180;2022-07-29T11:00:46;4.30;;;2.17;;
36449;SDS011;22475;51.390;7.180;2022-07-29T11:06:09;3.47;;;1.90;;
36449;SDS011;22475;51.390;7.180;2022-07-29T11:08:36;3.78;;;1.90;;
36449;SDS011;22475;51.390;7.180;2022-07-29T11:14:05;4.03;;;1.20;;
36449;SDS011;22475;51.390;7.180;2022-07-29T11:19:27;4.05;;;1.20;;
36449;SDS011;22475;51.390;7.180;2022-07-29T11:21:54;7.68;;;2.72;;
36449;SDS011;22475;51.390;7.180;2022-07-29T11:24:22;6.68;;;1.08;;
36449;SDS011;22475;51.390;7.180;2022-07-29T11:27:10;3.55;;;0.73;;
36449;SDS011;22475;51.390;7.180;2022-07-29T11:29:52;1.92;;;1.17;;
36449;SDS011;22475;51.390;7.180;2022-07-29T11:32:20;3.75;;;0.88;;
36449;SDS011;22475;51.390;7.180;2022-07-29T11:34:48;1.67;;;0.93;;
36449;SDS011;22475;51.390;7.180;2022-07-29T11:37:31;3.45;;;1.45;;
36449;SDS011;22475;51.390;7.180;2022-07-29T11:40:08;1.20;;;1.13;;
36449;SDS011;22475;51.390;7.180;2022-07-29T11:42:42;2.45;;;0.70;;
36449;SDS011;22475;51.390;7.180;2022-07-29T11:45:12;1.27;;;0.80;;
36449;SDS011;22475;51.390;7.180;2022-07-29T11:47:41;2.58;;;1.00;;
36449;SDS011;22475;51.390;7.180;2022-07-29T11:50:14;1.25;;;1.15;;
36449;SDS011;22475;51.390;7.180;2022-07-29T11:52:42;1.42;;;1.10;;
36449;SDS011;22475;51.390;7.180;2022-07-29T11:55:12;2.13;;;1.10;;
36449;SDS011;22475;51.390;7.180;2022-07-29T11:57:48;2.25;;;1.10;;
36449;SDS011;22475;51.390;7.180;2022-07-29T12:00:21;3.30;;;1.20;;
36449;SDS011;22475;51.390;7.180;2022-07-29T12:02:53;1.63;;;1.17;;
36449;SDS011;22475;51.390;7.180;2022-07-29T12:05:25;6.13;;;0.90;;
36449;SDS011;22475;51.390;7.180;2022-07-29T12:08:04;1.30;;;0.80;;
36449;SDS011;22475;51.390;7.180;2022-07-29T12:10:38;3.83;;;0.75;;
36449;SDS011;22475;51.390;7.180;2022-07-29T12:13:07;1.88;;;1.30;;
36449;SDS011;22475;51.390;7.180;2022-07-29T12:15:34;1.13;;;0.80;;
36449;SDS011;22475;51.390;7.180;2022-07-29T12:18:11;4.43;;;1.33;;
36449;SDS011;22475;51.390;7.180;2022-07-29T12:20:39;1.30;;;0.75;;
36449;SDS011;22475;51.390;7.180;2022-07-29T12:23:07;1.52;;;0.85;;
36449;SDS011;22475;51.390;7.180;2022-07-29T12:25:36;1.88;;;1.10;;
36449;SDS011;22475;51.390;7.180;2022-07-29T12:28:05;3.08;;;1.20;;
36449;SDS011;22475;51.390;7.180;2022-07-29T12:30:35;0.70;;;0.70;;
36449;SDS011;22475;51.390;7.180;2022-07-29T12:33:15;1.63;;;1.52;;
36449;SDS011;22475;51.390;7.180;2022-07-29T12:35:45;6.32;;;1.20;;
36449;SDS011;22475;51.390;7.180;2022-07-29T12:38:13;0.70;;;0.70;;
36449;SDS011;22475;51.390;7.180;2022-07-29T12:40:41;0.70;;;0.70;;
36449;SDS011;22475;51.390;7.180;2022-07-29T12:43:11;2.42;;;1.13;;
36449;SDS011;22475;51.390;7.180;2022-07-29T12:48:07;4.00;;;1.05;;
36449;SDS011;22475;51.390;7.180;2022-07-29T12:50:35;2.92;;;1.40;;
36449;SDS011;22475;51.390;7.180;2022-07-29T12:53:09;1.10;;;0.95;;
36449;SDS011;22475;51.390;7.180;2022-07-29T12:55:39;1.80;;;0.93;;
36449;SDS011;22475;51.390;7.180;2022-07-29T12:58:24;3.10;;;0.93;;
36449;SDS011;22475;51.390;7.180;2022-07-29T13:03:43;2.35;;;0.85;;
36449;SDS011;22475;51.390;7.180;2022-07-29T13:09:02;1.05;;;0.95;;
36449;SDS011;22475;51.390;7.180;2022-07-29T13:11:33;2.13;;;1.00;;
36449;SDS011;22475;51.390;7.180;2022-07-29T13:14:03;4.40;;;1.38;;
36449;SDS011;22475;51.390;7.180;2022-07-29T13:16:30;2.83;;;1.10;;
36449;SDS011;22475;51.390;7.180;2022-07-29T13:19:07;1.13;;;0.77;;
36449;SDS011;22475;51.390;7.180;2022-07-29T13:21:36;0.85;;;0.82;;
36449;SDS011;22475;51.390;7.180;2022-07-29T13:24:04;1.48;;;1.17;;
36449;SDS011;22475;51.390;7.180;2022-07-29T13:26:32;0.90;;;0.90;;
36449;SDS011;22475;51.390;7.180;2022-07-29T13:28:59;1.00;;;0.95;;
36449;SDS011;22475;51.390;7.180;2022-07-29T13:31:27;2.05;;;0.70;;
36449;SDS011;22475;51.390;7.180;2022-07-29T13:33:54;1.23;;;1.13;;
36449;SDS011;22475;51.390;7.180;2022-07-29T13:36:21;0.63;;;0.63;;
36449;SDS011;22475;51.390;7.180;2022-07-29T13:38:48;1.75;;;1.00;;
36449;SDS011;22475;51.390;7.180;2022-07-29T13:41:15;2.53;;;1.00;;
36449;SDS011;22475;51.390;7.180;2022-07-29T13:43:42;1.23;;;1.00;;
36449;SDS011;22475;51.390;7.180;2022-07-29T13:46:09;1.45;;;0.73;;
36449;SDS011;22475;51.390;7.180;2022-07-29T13:48:37;4.97;;;1.48;;
36449;SDS011;22475;51.390;7.180;2022-07-29T13:51:04;1.77;;;1.38;;
36449;SDS011;22475;51.390;7.180;2022-07-29T13:53:31;2.45;;;1.13;;
36449;SDS011;22475;51.390;7.180;2022-07-29T13:55:58;1.00;;;0.70;;
36449;SDS011;22475;51.390;7.180;2022-07-29T13:58:25;1.85;;;0.93;;
36449;SDS011;22475;51.390;7.180;2022-07-29T14:00:52;1.30;;;0.90;;
36449;SDS011;22475;51.390;7.180;2022-07-29T14:03:19;1.88;;;1.10;;
36449;SDS011;22475;51.390;7.180;2022-07-29T14:05:47;2.00;;;0.85;;
36449;SDS011;22475;51.390;7.180;2022-07-29T14:08:14;2.40;;;1.05;;
36449;SDS011;22475;51.390;7.180;2022-07-29T14:10:41;1.40;;;0.90;;
36449;SDS011;22475;51.390;7.180;2022-07-29T14:13:08;1.38;;;1.27;;
36449;SDS011;22475;51.390;7.180;2022-07-29T14:15:34;3.88;;;1.17;;
36449;SDS011;22475;51.390;7.180;2022-07-29T14:18:01;2.47;;;1.02;;
36449;SDS011;22475;51.390;7.180;2022-07-29T14:20:28;1.92;;;0.80;;
36449;SDS011;22475;51.390;7.180;2022-07-29T14:22:57;8.50;;;2.33;;
36449;SDS011;22475;51.390;7.180;2022-07-29T14:25:24;14.07;;;1.58;;
36449;SDS011;22475;51.390;7.180;2022-07-29T14:27:51;15.18;;;2.17;;
36449;SDS011;22475;51.390;7.180;2022-07-29T14:30:19;11.05;;;2.08;;
36449;SDS011;22475;51.390;7.180;2022-07-29T14:32:46;17.52;;;2.38;;
36449;SDS011;22475;51.390;7.180;2022-07-29T14:35:13;16.13;;;2.15;;
36449;SDS011;22475;51.390;7.180;2022-07-29T14:37:40;46.55;;;4.03;;
36449;SDS011;22475;51.390;7.180;2022-07-29T14:40:09;32.45;;;3.60;;
36449;SDS011;22475;51.390;7.180;2022-07-29T14:42:37;39.87;;;4.97;;
36449;SDS011;22475;51.390;7.180;2022-07-29T14:45:04;25.90;;;4.13;;
36449;SDS011;22475;51.390;7.180;2022-07-29T14:47:33;22.25;;;5.00;;
36449;SDS011;22475;51.390;7.180;2022-07-29T14:50:00;84.70;;;7.43;;
36449;SDS011;22475;51.390;7.180;2022-07-29T14:52:27;44.30;;;4.95;;
36449;SDS011;22475;51.390;7.180;2022-07-29T14:54:54;50.47;;;6.93;;
36449;SDS011;22475;51.390;7.180;2022-07-29T14:57:22;55.85;;;7.32;;
36449;SDS011;22475;51.390;7.180;2022-07-29T14:59:50;56.50;;;4.55;;
36449;SDS011;22475;51.390;7.180;2022-07-29T15:02:17;69.47;;;7.25;;
36449;SDS011;22475;51.390;7.180;2022-07-29T15:04:44;75.03;;;6.07;;
36449;SDS011;22475;51.390;7.180;2022-07-29T15:07:13;61.10;;;8.63;;
36449;SDS011;22475;51.390;7.180;2022-07-29T15:09:40;107.80;;;9.18;;
36449;SDS011;22475;51.390;7.180;2022-07-29T15:12:07;86.75;;;7.93;;
36449;SDS011;22475;51.390;7.180;2022-07-29T15:14:36;85.35;;;7.72;;
36449;SDS011;22475;51.390;7.180;2022-07-29T15:17:03;77.68;;;9.05;;
36449;SDS011;22475;51.390;7.180;2022-07-29T15:19:30;64.20;;;6.35;;
36449;SDS011;22475;51.390;7.180;2022-07-29T15:21:58;87.35;;;10.20;;